Time;durP1;ratioP1;P1;durP2;ratioP2;P2;SDS_P1;SDS_P2;PMS_P1;PMS_P2;Temp;Humidity;BMP_temperature;BMP_pressure;BME280_temperature;BME280_humidity;BME280_pressure;Samples;Min_cycle;Max_cycle;Signal;HPM_P1;HPM_P2
2022/01/13 00:01:08;;;;;;;15.63;9.90;;;;;;;4.77;68.70;102583.59;10472915;28;20120;-64
2022/01/13 00:06:09;;;;;;;11.15;9.93;;;;;;;4.75;68.60;102588.03;10480517;28;20051;-64
2022/01/13 00:11:11;;;;;;;10.63;8.63;;;;;;;4.76;68.04;102588.91;10482133;28;20071;-64
2022/01/13 00:21:35;;;;;;;11.82;9.95;;;;;;;4.52;69.54;102572.63;10475048;28;20607;-64
2022/01/13 00:26:37;;;;;;;15.45;11.20;;;;;;;4.37;69.98;102578.19;10478723;28;20123;-64
2022/01/13 00:31:41;;;;;;;14.13;12.20;;;;;;;4.54;69.41;102584.00;10469906;28;20121;-63
2022/01/13 00:36:43;;;;;;;14.07;11.40;;;;;;;4.66;69.25;102582.06;10468347;28;20927;-64
2022/01/13 00:41:44;;;;;;;14.48;11.77;;;;;;;4.65;69.16;102583.81;10478971;28;20043;-64
2022/01/13 00:46:56;;;;;;;13.93;12.02;;;;;;;4.71;68.65;102586.34;10477948;28;20482;-64
2022/01/13 00:51:57;;;;;;;13.48;12.05;;;;;;;4.75;68.67;102581.88;10468581;28;20553;-64
2022/01/13 00:56:59;;;;;;;12.57;11.30;;;;;;;4.78;68.06;102589.75;10475752;28;20122;-68
2022/01/13 01:02:00;;;;;;;12.77;11.48;;;;;;;4.78;68.16;102600.28;10496991;28;20509;-63
2022/01/13 01:07:02;;;;;;;12.27;10.43;;;;;;;4.83;67.98;102605.47;10475639;28;20048;-63
2022/01/13 01:12:04;;;;;;;12.95;10.93;;;;;;;4.82;67.97;102599.34;10470199;28;20109;-62
2022/01/13 01:17:06;;;;;;;12.07;9.98;;;;;;;4.78;67.56;102600.28;10482162;28;20570;-63
2022/01/13 01:27:20;;;;;;;10.27;9.18;;;;;;;4.86;67.60;102602.78;10478566;28;20044;-62
2022/01/13 01:32:22;;;;;;;12.00;10.18;;;;;;;4.82;67.53;102609.00;10475231;28;20048;-63
2022/01/13 01:37:27;;;;;;;10.18;8.77;;;;;;;4.77;67.38;102610.00;10466568;28;20072;-64
2022/01/13 01:42:28;;;;;;;11.10;8.70;;;;;;;4.79;67.13;102612.59;10478757;28;20066;-63
2022/01/13 01:47:31;;;;;;;11.30;9.27;;;;;;;4.73;67.92;102599.53;10472233;28;20155;-64
2022/01/13 01:52:32;;;;;;;11.15;9.27;;;;;;;4.69;68.03;102582.00;10478616;28;20465;-63
2022/01/13 01:57:34;;;;;;;10.85;9.15;;;;;;;4.73;67.83;102589.84;10478554;28;20052;-64
2022/01/13 02:02:36;;;;;;;11.20;9.40;;;;;;;4.70;67.63;102589.88;10474436;28;20056;-63
2022/01/13 02:07:39;;;;;;;11.93;9.60;;;;;;;4.77;67.84;102586.25;10487237;28;20059;-63
2022/01/13 02:12:46;;;;;;;10.65;9.48;;;;;;;4.78;67.76;102589.75;10489355;28;20048;-63
2022/01/13 02:17:48;;;;;;;10.88;9.02;;;;;;;4.83;67.69;102579.94;10488073;28;20102;-64
2022/01/13 02:22:49;;;;;;;10.02;9.02;;;;;;;4.89;67.53;102561.34;10490075;28;20052;-63
2022/01/13 02:27:51;;;;;;;11.80;9.77;;;;;;;4.96;67.26;102568.25;10493029;28;20113;-63
2022/01/13 02:32:52;;;;;;;8.65;7.22;;;;;;;4.81;67.28;102573.84;10520552;28;20055;-64
2022/01/13 02:37:54;;;;;;;9.95;8.68;;;;;;;4.84;67.48;102578.22;10497778;28;20079;-63
2022/01/13 02:42:55;;;;;;;12.88;9.98;;;;;;;4.84;67.77;102581.69;10473924;28;20135;-65
2022/01/13 02:48:25;;;;;;;13.25;11.43;;;;;;;4.82;67.34;102588.78;10479488;28;20067;-63
2022/01/13 02:53:21;;;;;;;13.70;11.68;;;;;;;4.80;67.63;102589.72;10490610;28;20061;-66
2022/01/13 02:58:23;;;;;;;16.20;12.57;;;;;;;4.74;68.10;102591.59;10501968;28;20060;-63
2022/01/13 03:03:25;;;;;;;15.25;12.55;;;;;;;4.83;67.78;102585.22;10476776;28;20227;-63
2022/01/13 03:08:26;;;;;;;14.45;12.23;;;;;;;4.93;68.05;102586.81;10477978;28;20063;-64
2022/01/13 03:13:29;;;;;;;13.75;12.43;;;;;;;4.54;68.75;102585.78;10483958;28;20080;-63
2022/01/13 03:18:31;;;;;;;14.63;12.82;;;;;;;4.91;68.39;102575.41;10479469;28;20171;-63
2022/01/13 03:23:33;;;;;;;16.05;13.20;;;;;;;4.94;68.04;102582.41;10476535;28;20144;-63
2022/01/13 03:28:40;;;;;;;16.15;13.75;;;;;;;4.79;68.46;102573.03;10483187;28;20063;-64
2022/01/13 03:33:42;;;;;;;17.58;13.45;;;;;;;4.82;67.91;102575.59;10487525;28;20563;-63
2022/01/13 03:38:44;;;;;;;16.75;12.98;;;;;;;4.98;68.27;102591.97;10473849;28;20083;-63
2022/01/13 03:43:46;;;;;;;17.73;14.18;;;;;;;4.35;68.99;102527.22;10499568;22;20068;-55
2022/01/13 03:48:47;;;;;;;15.02;13.30;;;;;;;4.68;68.59;102572.34;10494436;28;20075;-56
2022/01/13 03:54:26;;;;;;;14.75;12.88;;;;;;;4.69;68.92;102569.66;10490495;28;20135;-57
2022/01/13 03:59:54;;;;;;;17.88;15.98;;;;;;;4.75;68.27;102545.81;10493230;28;20666;-56
2022/01/13 04:04:55;;;;;;;14.32;12.45;;;;;;;4.84;68.55;102562.38;10485438;28;20345;-56
2022/01/13 04:09:56;;;;;;;14.60;12.40;;;;;;;4.92;68.30;102552.50;10490233;28;20151;-56
2022/01/13 04:15:00;;;;;;;10.63;9.52;;;;;;;4.84;68.05;102539.47;10492762;28;20127;-56
2022/01/13 04:20:01;;;;;;;10.88;9.35;;;;;;;4.66;68.59;102538.06;10493650;28;20093;-56
2022/01/13 04:25:04;;;;;;;11.30;10.10;;;;;;;4.85;68.11;102548.25;10483015;28;20051;-56
2022/01/13 04:35:16;;;;;;;12.02;9.93;;;;;;;4.88;67.94;102538.53;10488573;28;20139;-56
2022/01/13 04:40:18;;;;;;;11.10;9.95;;;;;;;4.92;67.96;102549.88;10471703;28;20127;-56
2022/01/13 04:45:20;;;;;;;10.55;9.45;;;;;;;4.91;68.45;102542.88;10489404;28;20068;-56
2022/01/13 04:50:23;;;;;;;12.27;10.98;;;;;;;4.87;68.48;102544.69;10490581;28;20147;-56
2022/01/13 04:55:26;;;;;;;12.60;11.23;;;;;;;4.88;68.67;102546.44;10491976;28;20598;-56
2022/01/13 05:00:29;;;;;;;12.32;11.02;;;;;;;4.86;68.62;102539.44;10483011;28;20170;-56
2022/01/13 05:05:30;;;;;;;14.48;10.63;;;;;;;4.66;68.74;102550.41;10483940;28;20115;-56
2022/01/13 05:10:32;;;;;;;11.60;10.30;;;;;;;4.55;69.41;102553.25;10485934;28;20580;-56
2022/01/13 05:15:35;;;;;;;11.40;10.20;;;;;;;4.57;69.30;102562.84;10488771;28;20098;-57
2022/01/13 05:20:50;;;;;;;13.65;11.57;;;;;;;4.58;69.10;102561.97;10490445;28;20069;-56
2022/01/13 05:25:52;;;;;;;13.90;12.40;;;;;;;4.44;69.64;102574.50;10462770;28;20119;-56
2022/01/13 05:30:53;;;;;;;15.43;12.55;;;;;;;4.45;69.74;102560.44;10490060;28;20467;-62
2022/01/13 05:35:55;;;;;;;18.58;12.80;;;;;;;4.48;69.85;102562.16;10487064;28;20140;-57
2022/01/13 05:40:58;;;;;;;19.88;15.00;;;;;;;4.31;69.75;102555.41;10486306;28;20131;-57
2022/01/13 05:45:59;;;;;;;15.85;13.35;;;;;;;4.38;70.02;102566.72;10486510;28;20063;-57
2022/01/13 05:51:01;;;;;;;16.02;12.10;;;;;;;4.39;69.48;102582.50;10494753;28;20040;-56
2022/01/13 05:56:02;;;;;;;13.90;10.10;;;;;;;4.25;69.78;102569.56;10484304;28;20075;-56
2022/01/13 06:01:06;;;;;;;14.25;12.02;;;;;;;4.27;70.37;102595.91;10452321;28;20063;-56
2022/01/13 06:06:07;;;;;;;13.57;11.52;;;;;;;4.25;70.54;102587.16;10463710;28;20178;-56
2022/01/13 06:11:09;;;;;;;12.18;10.35;;;;;;;4.23;70.05;102581.94;10463684;28;20058;-56
2022/01/13 06:16:10;;;;;;;11.88;9.90;;;;;;;4.29;70.08;102580.94;10460290;28;20056;-56
2022/01/13 06:21:12;;;;;;;10.88;9.27;;;;;;;4.22;69.99;102582.81;10460652;28;20040;-56
2022/01/13 06:26:13;;;;;;;10.27;9.27;;;;;;;4.34;70.10;102579.09;10460693;28;20062;-56
2022/01/13 06:31:15;;;;;;;11.30;9.30;;;;;;;4.33;69.80;102565.94;10460573;28;20127;-57
2022/01/13 06:36:16;;;;;;;11.88;10.25;;;;;;;4.26;69.60;102578.34;10466754;28;20205;-56
2022/01/13 06:41:18;;;;;;;12.60;11.38;;;;;;;4.21;70.69;102577.56;10459412;28;20765;-57
2022/01/13 06:46:20;;;;;;;11.02;9.20;;;;;;;4.13;70.55;102579.44;10457774;28;20464;-56
2022/01/13 06:51:22;;;;;;;11.07;9.98;;;;;;;3.91;71.59;102590.34;10459236;28;20057;-57
2022/01/13 06:56:24;;;;;;;14.15;12.20;;;;;;;3.73;72.37;102594.09;10458628;28;20044;-54
2022/01/13 07:01:26;;;;;;;13.45;11.63;;;;;;;3.87;72.39;102592.16;10456150;28;20097;-57
2022/01/13 07:06:27;;;;;;;15.02;12.88;;;;;;;4.06;71.86;102599.78;10463351;28;20056;-56
2022/01/13 07:11:29;;;;;;;14.43;12.35;;;;;;;4.05;71.64;102601.53;10457934;28;20064;-56
2022/01/13 07:16:30;;;;;;;17.85;12.75;;;;;;;3.96;71.86;102608.72;10456323;28;20120;-56
2022/01/13 07:21:33;;;;;;;14.18;12.60;;;;;;;3.69;72.63;102616.13;10443787;28;20600;-56
2022/01/13 07:26:34;;;;;;;16.55;13.35;;;;;;;3.74;72.34;102609.03;10458979;28;20194;-56
2022/01/13 07:31:37;;;;;;;15.10;13.55;;;;;;;3.91;72.55;102621.09;10456486;28;20051;-56
2022/01/13 07:36:40;;;;;;;16.90;13.25;;;;;;;3.93;72.04;102624.56;10446141;28;20121;-56
2022/01/13 07:41:42;;;;;;;16.80;14.00;;;;;;;3.81;72.81;102631.75;10452667;28;20525;-55
2022/01/13 07:46:44;;;;;;;18.33;14.80;;;;;;;3.81;72.77;102626.47;10441216;28;20519;-54
2022/01/13 07:51:46;;;;;;;19.17;15.38;;;;;;;3.94;72.76;102631.59;10440949;28;20044;-55
2022/01/13 07:56:47;;;;;;;16.65;14.60;;;;;;;3.96;72.48;102624.50;10462165;28;20138;-54
2022/01/13 08:01:48;;;;;;;16.40;14.63;;;;;;;3.94;72.66;102621.03;10458391;28;20052;-54
2022/01/13 08:06:50;;;;;;;17.90;14.32;;;;;;;3.92;72.62;102633.34;10459401;28;20052;-56
2022/01/13 08:11:56;;;;;;;18.23;16.35;;;;;;;3.96;72.97;102624.50;10457587;28;20401;-57
2022/01/13 08:17:00;;;;;;;16.45;14.00;;;;;;;4.05;72.48;102637.56;10459501;28;20140;-56
2022/01/13 08:22:01;;;;;;;18.37;13.00;;;;;;;3.90;72.79;102646.56;10455795;28;20126;-55
2022/01/13 08:27:03;;;;;;;15.27;13.68;;;;;;;4.04;72.50;102644.59;10457898;28;20127;-54
2022/01/13 08:32:05;;;;;;;17.88;15.38;;;;;;;4.08;72.62;102637.50;10460569;28;20154;-56
2022/01/13 08:37:06;;;;;;;16.70;14.55;;;;;;;4.27;71.96;102637.25;10460335;28;20064;-56
2022/01/13 08:42:08;;;;;;;15.98;14.27;;;;;;;4.18;72.26;102636.47;10452778;28;20055;-57
2022/01/13 08:47:10;;;;;;;15.52;13.38;;;;;;;4.00;72.21;102620.94;10456097;28;21447;-57
2022/01/13 08:52:11;;;;;;;16.27;13.70;;;;;;;4.21;71.91;102635.56;10461335;28;20051;-61
2022/01/13 08:57:14;;;;;;;15.65;13.82;;;;;;;4.43;71.40;102633.47;10456913;28;20086;-57
2022/01/13 09:02:15;;;;;;;15.73;13.68;;;;;;;4.46;71.10;102641.31;10465817;28;20055;-55
2022/01/13 09:07:17;;;;;;;16.20;14.00;;;;;;;4.54;70.43;102644.69;10494361;28;20382;-56
2022/01/13 09:12:36;;;;;;;15.98;14.38;;;;;;;4.54;70.36;102647.31;10496715;28;20211;-55
2022/01/13 09:17:39;;;;;;;16.55;14.77;;;;;;;4.29;70.92;102649.47;10496929;28;20119;-60
2022/01/13 09:22:41;;;;;;;16.00;14.25;;;;;;;4.32;70.79;102630.13;10494673;28;20075;-57
2022/01/13 09:27:42;;;;;;;18.40;16.55;;;;;;;4.38;71.30;102643.19;10499361;28;20540;-55
2022/01/13 09:32:44;;;;;;;19.13;17.23;;;;;;;4.43;70.97;102652.78;10503531;28;20132;-56
2022/01/13 09:37:46;;;;;;;19.10;15.45;;;;;;;4.23;71.28;102641.66;10502168;28;20572;-56
2022/01/13 09:42:48;;;;;;;18.17;16.25;;;;;;;4.22;71.64;102661.91;10503652;28;20133;-56
2022/01/13 09:47:51;;;;;;;18.88;16.88;;;;;;;4.33;71.34;102674.06;10503052;28;20075;-56
2022/01/13 09:52:57;;;;;;;18.08;16.15;;;;;;;4.32;71.60;102681.06;10500598;28;20119;-55
2022/01/13 09:58:02;;;;;;;16.63;14.93;;;;;;;4.29;71.50;102675.84;10497705;28;20126;-56
2022/01/13 10:03:30;;;;;;;18.27;15.52;;;;;;;4.40;70.96;102686.25;10482274;28;20123;-54
2022/01/13 10:08:51;;;;;;;18.45;15.70;;;;;;;4.35;70.86;102682.81;10495857;28;21427;-55
2022/01/13 10:14:15;;;;;;;17.55;14.68;;;;;;;4.30;70.84;102676.75;10496392;28;20158;-57
2022/01/13 10:19:28;;;;;;;17.80;15.93;;;;;;;4.28;71.06;102675.88;10497697;28;20132;-55
2022/01/13 10:24:32;;;;;;;15.85;14.23;;;;;;;4.30;70.88;102676.75;10501968;28;20067;-57
2022/01/13 10:29:47;;;;;;;16.42;14.10;;;;;;;4.33;71.19;102666.16;10489048;28;20048;-55
2022/01/13 10:35:19;;;;;;;15.45;13.85;;;;;;;4.17;71.06;102671.63;10499606;28;20047;-55
2022/01/13 10:40:30;;;;;;;18.60;14.52;;;;;;;4.35;71.18;102661.69;10482457;28;20125;-56
2022/01/13 10:45:33;;;;;;;18.23;12.73;;;;;;;4.29;70.89;102659.16;10502606;28;20075;-56
2022/01/13 10:50:37;;;;;;;15.50;13.90;;;;;;;4.25;70.88;102653.94;10500959;28;20565;-56
2022/01/13 10:55:43;;;;;;;13.93;12.48;;;;;;;4.12;71.29;102651.53;10482823;28;20139;-55
2022/01/13 11:00:49;;;;;;;16.58;13.95;;;;;;;4.10;71.38;102642.75;10497963;28;20056;-56
2022/01/13 11:05:52;;;;;;;16.65;14.65;;;;;;;4.16;71.11;102645.28;10479478;28;20385;-62
2022/01/13 11:10:56;;;;;;;16.35;13.93;;;;;;;4.15;71.23;102631.25;10484061;28;20043;-55
2022/01/13 11:15:58;;;;;;;16.90;14.00;;;;;;;4.18;71.25;102628.56;10501086;28;20135;-55
2022/01/13 11:21:02;;;;;;;17.40;14.57;;;;;;;4.21;71.18;102625.00;10499402;28;20113;-55
2022/01/13 11:26:05;;;;;;;16.52;14.77;;;;;;;4.37;70.24;102631.78;10495527;28;20123;-55
2022/01/13 11:31:08;;;;;;;18.70;16.27;;;;;;;4.45;70.33;102626.38;10496231;28;20413;-55
2022/01/13 11:36:12;;;;;;;16.40;14.35;;;;;;;4.07;71.26;102619.97;10497929;28;20412;-55
2022/01/13 11:41:15;;;;;;;16.88;13.07;;;;;;;4.10;71.42;102621.66;10495056;28;20701;-54
2022/01/13 11:46:22;;;;;;;16.63;14.93;;;;;;;4.20;70.78;102618.88;10498009;28;20606;-55
2022/01/13 11:51:24;;;;;;;18.70;16.15;;;;;;;4.25;71.11;102614.41;10496639;28;20055;-55
2022/01/13 11:56:27;;;;;;;17.50;14.80;;;;;;;4.19;70.84;102596.03;10497506;28;20058;-56
2022/01/13 12:01:32;;;;;;;16.15;13.77;;;;;;;4.42;70.43;102605.34;10493948;28;20147;-56
2022/01/13 12:06:46;;;;;;;17.20;15.15;;;;;;;4.32;70.37;102590.56;10475077;28;20043;-56
2022/01/13 12:11:55;;;;;;;16.20;14.40;;;;;;;4.34;70.35;102607.22;10497003;28;20124;-56
2022/01/13 12:17:19;;;;;;;16.45;14.85;;;;;;;4.38;70.19;102606.28;10498294;28;20382;-55
2022/01/13 12:22:27;;;;;;;20.92;15.90;;;;;;;4.31;70.47;102602.00;10490027;28;20734;-55
2022/01/13 12:27:38;;;;;;;14.90;13.40;;;;;;;4.37;70.08;102607.19;10496955;28;20719;-55
2022/01/13 12:32:51;;;;;;;14.98;13.45;;;;;;;4.54;69.85;102597.19;10495405;28;20094;-56
2022/01/13 12:38:03;;;;;;;15.57;13.95;;;;;;;4.46;69.52;102604.38;10494560;28;20135;-56
2022/01/13 12:43:21;;;;;;;16.27;14.27;;;;;;;4.45;69.48;102607.06;10494031;28;20097;-56
2022/01/13 12:48:28;;;;;;;17.52;14.57;;;;;;;4.25;70.53;102593.31;10494385;28;20043;-56
2022/01/13 12:53:32;;;;;;;19.98;14.68;;;;;;;4.27;70.49;102592.41;10483358;28;20156;-56
2022/01/13 12:58:44;;;;;;;20.10;17.65;;;;;;;4.19;70.43;102574.94;10497264;28;20047;-54
2022/01/13 13:03:57;;;;;;;18.42;15.73;;;;;;;4.40;70.08;102591.31;10493445;28;20044;-55
2022/01/13 13:09:08;;;;;;;18.42;16.42;;;;;;;4.27;70.93;102581.88;10494093;28;20063;-56
2022/01/13 13:14:19;;;;;;;18.75;16.83;;;;;;;4.34;70.85;102583.47;10496418;28;20601;-58
2022/01/13 13:19:20;;;;;;;18.70;16.70;;;;;;;4.32;71.00;102570.31;10494254;28;20127;-56
2022/01/13 13:24:23;;;;;;;21.27;16.48;;;;;;;4.27;71.29;102571.31;10494399;28;20497;-56
2022/01/13 13:29:26;;;;;;;18.90;16.08;;;;;;;4.28;71.35;102565.13;10494103;28;20127;-56
2022/01/13 13:34:29;;;;;;;22.00;19.48;;;;;;;4.42;71.33;102558.72;10492542;28;20569;-56
2022/01/13 13:39:31;;;;;;;20.90;18.75;;;;;;;4.45;70.78;102549.03;10466266;28;20105;-57
2022/01/13 13:44:38;;;;;;;19.88;16.90;;;;;;;4.37;70.73;102552.66;10492608;28;20048;-55
2022/01/13 13:49:46;;;;;;;18.63;16.42;;;;;;;4.37;71.33;102543.91;10493883;28;20052;-56
2022/01/13 13:54:56;;;;;;;21.05;18.38;;;;;;;4.48;70.93;102543.69;10490249;28;20093;-56
2022/01/13 13:59:59;;;;;;;20.00;17.90;;;;;;;4.57;70.59;102535.59;10491633;28;20486;-56
2022/01/13 14:05:05;;;;;;;19.83;17.73;;;;;;;4.57;70.42;102539.09;10491805;28;20529;-55
2022/01/13 14:10:13;;;;;;;19.27;16.90;;;;;;;4.58;70.22;102535.59;10499152;28;20044;-55
2022/01/13 14:15:20;;;;;;;22.30;17.45;;;;;;;4.64;70.52;102528.44;10501605;28;20071;-57
2022/01/13 14:20:25;;;;;;;22.15;18.50;;;;;;;4.41;70.79;102511.28;10499703;28;20149;-56
2022/01/13 14:25:38;;;;;;;20.90;17.90;;;;;;;4.43;70.94;102526.19;10498019;28;20066;-55
2022/01/13 14:30:45;;;;;;;19.52;17.42;;;;;;;4.28;70.86;102504.50;10501976;28;20138;-55
2022/01/13 14:36:01;;;;;;;21.65;18.17;;;;;;;4.42;71.17;102529.72;10497720;28;20080;-55
2022/01/13 14:41:03;;;;;;;22.00;18.98;;;;;;;4.34;71.29;102530.75;10487571;28;20040;-55
2022/01/13 14:46:11;;;;;;;21.35;19.05;;;;;;;4.36;71.02;102534.25;10502179;28;20086;-56
2022/01/13 14:51:15;;;;;;;21.33;18.63;;;;;;;4.40;71.40;102534.16;10501875;28;20453;-57
2022/01/13 14:56:18;;;;;;;21.00;18.55;;;;;;;4.36;71.12;102529.81;10502739;28;20123;-55
2022/01/13 15:01:21;;;;;;;21.50;19.20;;;;;;;4.15;71.52;102514.41;10501196;28;20060;-56
2022/01/13 15:06:23;;;;;;;20.27;17.45;;;;;;;4.16;71.97;102524.91;10492679;28;20083;-55
2022/01/13 15:11:25;;;;;;;23.08;18.85;;;;;;;4.09;72.15;102510.09;10484223;28;20050;-55
2022/01/13 15:16:26;;;;;;;23.95;20.60;;;;;;;4.12;72.37;102536.41;10500621;28;20047;-56
2022/01/13 15:21:29;;;;;;;21.33;18.25;;;;;;;4.08;72.55;102524.16;10499081;28;20083;-57
2022/01/13 15:26:30;;;;;;;23.95;18.42;;;;;;;4.00;72.75;102520.81;10496582;28;20476;-55
2022/01/13 15:31:32;;;;;;;24.13;20.05;;;;;;;3.84;73.03;102501.72;10499512;28;20187;-55
2022/01/13 15:36:34;;;;;;;26.27;21.02;;;;;;;3.88;73.56;102517.47;10499249;28;20222;-56
2022/01/13 15:41:36;;;;;;;26.33;21.73;;;;;;;3.81;73.94;102505.28;10504468;22;20105;-60
2022/01/13 15:46:37;;;;;;;25.85;20.33;;;;;;;3.78;74.09;102500.06;10488827;28;20795;-60
2022/01/13 15:51:39;;;;;;;24.75;22.10;;;;;;;3.81;74.04;102499.16;10493222;28;20054;-60
2022/01/13 15:56:40;;;;;;;26.13;21.35;;;;;;;3.57;74.62;102487.22;10488937;28;20076;-59
2022/01/13 16:01:42;;;;;;;25.67;20.33;;;;;;;3.66;74.88;102501.16;10491035;28;20044;-61
2022/01/13 16:06:43;;;;;;;26.45;20.58;;;;;;;3.72;74.65;102494.88;10493915;28;20056;-60
2022/01/13 16:11:44;;;;;;;26.85;21.95;;;;;;;3.63;74.77;102487.13;10487385;28;20112;-65
2022/01/13 16:16:46;;;;;;;28.85;23.75;;;;;;;3.87;74.46;102499.03;10489674;28;20045;-59
2022/01/13 16:21:47;;;;;;;30.58;24.23;;;;;;;3.83;74.23;102508.78;10490698;28;20048;-60
2022/01/13 16:26:49;;;;;;;27.15;22.27;;;;;;;3.66;74.81;102495.00;10488485;28;20098;-59
2022/01/13 16:31:50;;;;;;;28.67;23.48;;;;;;;3.61;75.20;102491.56;10484233;28;20138;-59
2022/01/13 16:36:51;;;;;;;36.60;31.85;;;;;;;3.65;74.83;102512.56;10483266;28;20134;-60
2022/01/13 16:41:53;;;;;;;28.05;23.23;;;;;;;3.66;75.13;102506.41;10491618;28;20056;-58
2022/01/13 16:46:55;;;;;;;27.98;23.90;;;;;;;3.70;75.21;102509.84;10493634;28;20101;-59
2022/01/13 16:51:57;;;;;;;29.40;24.23;;;;;;;3.69;74.88;102497.56;10485578;22;20312;-59
2022/01/13 16:56:58;;;;;;;27.02;21.67;;;;;;;3.75;75.04;102492.19;10485379;28;20072;-61
2022/01/13 17:02:00;;;;;;;27.50;23.33;;;;;;;3.69;74.98;102506.38;10482509;28;20051;-61
2022/01/13 17:07:04;;;;;;;27.35;23.98;;;;;;;3.70;75.23;102501.97;10479205;28;20052;-60
2022/01/13 17:12:06;;;;;;;31.27;22.50;;;;;;;3.67;75.01;102496.75;10479617;28;20071;-61
2022/01/13 17:17:08;;;;;;;25.92;21.45;;;;;;;3.58;75.39;102491.63;10483913;28;20044;-59
2022/01/13 17:22:10;;;;;;;29.58;21.88;;;;;;;3.35;76.29;102485.78;10485693;28;20040;-59
2022/01/13 17:27:11;;;;;;;26.58;21.98;;;;;;;3.41;76.58;102487.47;10480864;28;20135;-61
2022/01/13 17:32:13;;;;;;;26.38;21.45;;;;;;;3.45;77.08;102481.28;10478030;28;20132;-57
2022/01/13 17:37:14;;;;;;;26.92;20.63;;;;;;;3.40;76.96;102488.34;10464727;28;20051;-59
2022/01/13 17:42:17;;;;;;;27.52;20.42;;;;;;;3.39;76.57;102483.13;10486519;28;20093;-60
2022/01/13 17:47:18;;;;;;;31.02;21.42;;;;;;;3.48;76.73;102480.34;10488697;28;20128;-66
2022/01/13 17:52:20;;;;;;;25.02;19.38;;;;;;;3.52;76.51;102484.66;10489771;28;20052;-60
2022/01/13 17:57:25;;;;;;;26.53;22.30;;;;;;;3.43;76.77;102477.78;10500036;28;20055;-60
2022/01/13 18:02:27;;;;;;;28.02;21.52;;;;;;;3.43;76.94;102469.88;10496655;28;20779;-59
2022/01/13 18:07:28;;;;;;;27.10;21.80;;;;;;;3.50;77.17;102482.06;10474067;28;20146;-59
2022/01/13 18:12:35;;;;;;;26.63;22.05;;;;;;;3.62;76.94;102485.38;10491459;28;20139;-61
2022/01/13 18:17:38;;;;;;;26.48;21.05;;;;;;;3.66;76.53;102484.44;10497442;28;21001;-59
2022/01/13 18:22:40;;;;;;;32.08;25.05;;;;;;;3.50;76.89;102468.91;10498106;28;20383;-59
2022/01/13 18:27:42;;;;;;;28.95;22.02;;;;;;;3.39;77.38;102476.06;10493177;28;20125;-60
2022/01/13 18:32:44;;;;;;;29.17;22.77;;;;;;;3.47;77.36;102479.47;10479082;28;20631;-61
2022/01/13 18:37:46;;;;;;;29.95;23.10;;;;;;;3.56;76.95;102482.84;10495893;28;20071;-60
2022/01/13 18:42:53;;;;;;;29.38;21.90;;;;;;;3.56;76.97;102482.84;10482753;28;20051;-60
2022/01/13 18:48:05;;;;;;;28.30;21.27;;;;;;;3.46;77.23;102472.47;10481788;28;20068;-61
2022/01/13 18:53:09;;;;;;;29.98;21.92;;;;;;;3.41;77.52;102468.16;10470898;28;20514;-59
2022/01/13 18:58:10;;;;;;;32.20;22.08;;;;;;;3.42;77.51;102465.50;10478903;28;20130;-64
2022/01/13 19:03:11;;;;;;;28.80;22.10;;;;;;;3.43;78.00;102467.25;10476778;28;20139;-61
2022/01/13 19:08:13;;;;;;;29.85;22.30;;;;;;;3.46;77.58;102472.47;10486632;28;20072;-61
2022/01/13 19:13:14;;;;;;;26.00;21.83;;;;;;;3.45;77.32;102461.97;10485622;28;20044;-60
2022/01/13 19:18:20;;;;;;;27.90;20.73;;;;;;;3.40;77.21;102450.63;10492210;28;20059;-60
2022/01/13 19:23:22;;;;;;;27.02;21.83;;;;;;;3.51;77.03;102454.84;10467076;28;20145;-61
2022/01/13 19:28:25;;;;;;;27.50;20.77;;;;;;;3.58;76.69;102458.25;10483619;28;20133;-58
2022/01/13 19:33:27;;;;;;;29.35;22.50;;;;;;;3.55;76.71;102450.38;10481087;28;20153;-59
2022/01/13 19:38:28;;;;;;;28.25;21.13;;;;;;;3.43;77.19;102448.81;10486316;28;20688;-60
2022/01/13 19:43:29;;;;;;;29.25;22.35;;;;;;;3.46;77.25;102450.53;10476713;28;20131;-58
2022/01/13 19:48:32;;;;;;;28.38;21.50;;;;;;;3.51;76.95;102438.16;10482068;28;20036;-62
2022/01/13 19:53:37;;;;;;;29.75;22.77;;;;;;;3.58;76.90;102433.69;10473963;28;20040;-59
2022/01/13 19:58:39;;;;;;;30.10;22.55;;;;;;;3.42;77.39;102439.16;10488159;28;20131;-60
2022/01/13 20:03:42;;;;;;;32.30;22.67;;;;;;;3.46;77.27;102440.88;10458268;28;20056;-60
2022/01/13 20:08:43;;;;;;;30.20;22.23;;;;;;;3.35;78.10;102432.28;10497367;28;20067;-60
2022/01/13 20:13:46;;;;;;;33.03;22.52;;;;;;;3.49;77.40;102435.56;10488260;28;20049;-61
2022/01/13 20:18:47;;;;;;;34.88;23.58;;;;;;;3.30;78.12;102424.47;10472741;28;20048;-61
2022/01/13 20:23:49;;;;;;;31.65;23.17;;;;;;;3.31;78.60;102412.16;10482434;28;20509;-60
2022/01/13 20:28:50;;;;;;;36.13;24.05;;;;;;;3.30;78.38;102400.75;10490772;28;20056;-59
2022/01/13 20:33:53;;;;;;;36.10;23.55;;;;;;;3.32;78.24;102400.75;10481194;28;20123;-59
2022/01/13 20:38:55;;;;;;;31.83;22.35;;;;;;;3.42;78.47;102397.03;10490336;28;20554;-59
2022/01/13 20:43:58;;;;;;;34.45;24.42;;;;;;;3.43;78.23;102392.66;10491874;28;20525;-58
2022/01/13 20:49:00;;;;;;;38.33;25.98;;;;;;;3.23;79.05;102390.31;10487678;28;20587;-62
2022/01/13 20:54:02;;;;;;;34.75;25.00;;;;;;;3.19;79.08;102400.06;10482000;28;20139;-62
2022/01/13 20:59:04;;;;;;;35.05;24.98;;;;;;;3.25;78.99;102399.94;10464175;28;20489;-60
2022/01/13 21:04:06;;;;;;;36.30;26.40;;;;;;;3.26;78.57;102398.19;10484269;28;20486;-59
2022/01/13 21:09:07;;;;;;;34.40;24.30;;;;;;;3.24;79.15;102397.34;10482268;28;20106;-59
2022/01/13 21:14:09;;;;;;;37.05;26.70;;;;;;;3.22;78.72;102404.41;10476793;28;20560;-60
2022/01/13 21:19:10;;;;;;;38.70;26.27;;;;;;;3.35;78.60;102392.78;10490184;28;20071;-62
2022/01/13 21:24:12;;;;;;;37.50;24.50;;;;;;;3.16;79.75;102390.44;10491765;28;21981;-61
2022/01/13 21:29:13;;;;;;;38.47;26.20;;;;;;;3.16;79.78;102400.97;10491347;28;20043;-61
2022/01/13 21:34:15;;;;;;;35.03;24.23;;;;;;;2.99;80.05;102384.56;10498961;28;20673;-60
2022/01/13 21:39:19;;;;;;;37.67;24.67;;;;;;;2.85;80.69;102390.00;10501078;28;20493;-61
2022/01/13 21:44:20;;;;;;;40.60;24.07;;;;;;;2.97;80.68;102407.38;10477203;28;20190;-59
2022/01/13 21:49:42;;;;;;;38.45;24.02;;;;;;;2.96;80.62;102400.41;10476905;28;20148;-62
2022/01/13 21:54:46;;;;;;;35.25;24.67;;;;;;;3.06;80.56;102401.97;10488860;28;20055;-60
2022/01/13 21:59:48;;;;;;;35.63;23.38;;;;;;;2.96;80.57;102403.03;10489952;28;20505;-61
2022/01/13 22:04:49;;;;;;;43.67;24.95;;;;;;;2.71;81.54;102413.88;10490872;28;20140;-60
2022/01/13 22:09:51;;;;;;;36.05;24.02;;;;;;;2.72;81.91;102402.47;10491205;28;20052;-59
2022/01/13 22:14:54;;;;;;;38.03;25.40;;;;;;;2.81;81.57;102399.72;10470173;28;20050;-61
2022/01/13 22:19:56;;;;;;;35.40;24.00;;;;;;;2.87;80.70;102413.66;10475813;28;20126;-62
2022/01/13 22:24:59;;;;;;;35.22;23.55;;;;;;;2.98;80.52;102410.00;10479765;28;20040;-60
2022/01/13 22:30:04;;;;;;;38.55;25.63;;;;;;;2.83;80.88;102397.91;10477819;28;20184;-60
2022/01/13 22:35:07;;;;;;;40.77;25.67;;;;;;;2.79;80.65;102392.72;10465454;28;20043;-61
2022/01/13 22:40:11;;;;;;;39.22;25.52;;;;;;;2.96;80.68;102395.13;10488600;28;20144;-60
2022/01/13 22:45:15;;;;;;;37.17;25.35;;;;;;;2.96;80.41;102390.72;10483959;28;20650;-60
2022/01/13 22:50:17;;;;;;;39.72;24.52;;;;;;;2.92;80.71;102385.53;10467933;28;20072;-61
2022/01/13 22:55:20;;;;;;;36.42;24.20;;;;;;;2.94;81.02;102383.75;10483903;28;20501;-61
2022/01/13 23:00:33;;;;;;;43.25;25.48;;;;;;;2.93;80.77;102377.63;10453804;28;20055;-61
2022/01/13 23:05:35;;;;;;;38.88;27.45;;;;;;;3.02;80.74;102374.00;10459214;22;20041;-59
2022/01/13 23:10:37;;;;;;;43.33;27.50;;;;;;;3.09;80.72;102373.03;10444150;28;20044;-60
2022/01/13 23:26:19;;;;;;;41.25;25.88;;;;;;;3.05;80.01;102339.75;10431487;28;20398;-60